Melvin, IA

7:57 PM CDT on August 21, 2014 (GMT -0500)
Sheldon Municipal | Change Station
CLOSE
Current Station
Airport
Location: Sheldon,
Elevation: 1417 ft
Nearby Weather Stations

Elev 1417 ft 43.21 °N, 95.84 °W | Updated 22 minutes ago

Scattered Clouds
Scattered Clouds
82 °F
Feels Like 91 °F
N
6
Wind Variable Wind from SW

Today
High -- | Low -- °F
--% Chance of Precip.
Yesterday
High -- | Low -- °F
Precip. -- in
6:34 AM 8:15 PM
Waning Crescent, 11% visible
Pressure 29.83 in
Visibility 10.0 miles
Clouds Scattered Clouds 3000 ft
Heat Index 91 °F
Dew Point 77 °F
Humidity 84%
Rainfall 0.03 in
Snow Depth Not available.
UV 0 out of 12
Pollen 4.20 out of 12
Air Quality Not available.
Flu Activity Not available.
METAR KSHL 220035Z AUTO 22005KT 10SM SCT030 28/25 A2983 RMK AO2

More Conditions Fewer Conditions

Pressure 29.83 in
Visibility 10.0 miles
Clouds Scattered Clouds 3000 ft
Heat Index 91 °F
Dew Point 77 °F
Humidity 84%
Rainfall 0.03 in
Snow Depth Not available.
UV 0 out of 12
Pollen 4.20 out of 12
Air Quality Not available.
Flu Activity Not available.
METAR KSHL 220035Z AUTO 22005KT 10SM SCT030 28/25 A2983 RMK AO2

More Conditions Fewer Conditions

10-Day Weather Forecast

Almanac

Astronomy

Aug. 21, 2014 Rise Set
Actual Time 6:34 AM CDT 8:15 PM CDT
Civil Twilight 6:03 AM CDT 8:45 PM CDT
Nautical Twilight 5:27 AM CDT 9:22 PM CDT
Astronomical Twilight 4:47 AM CDT 10:01 PM CDT
Moon 3:02 AM CDT (8/21) 5:47 PM CDT (8/21)
Length of Visible Light 14h 41m
Length of Day
13h 41m
Tomorrow will be 2m 44s shorter.
Waning Crescent, 11% of the Moon is Illuminated
Today
Waning Crescent
Aug 25
New
Sep 2
First Quarter
Sep 8
Full
Sep 15
Last Quarter

Today's Extremes

State Highs State Lows

Community

WunderPhotos

Upload Photos

1,746,088 photos uploaded!

Nearby

Snow Depth

Station Depth Elevation
No new snow has been reported.

Earthquake Activity

City Distance Mag. Time & Date
No recent earthquake activity has been reported nearby.
Minimum magnitude displayed is 2.5.

Coastal Water Temperatures

Place Temperature
No Stations Reporting

Nearby Weather Stations